Time;durP1;ratioP1;P1;durP2;ratioP2;P2;SDS_P1;SDS_P2;PMS_P1;PMS_P2;Temp;Humidity;BMP_temperature;BMP_pressure;BME280_temperature;BME280_humidity;BME280_pressure;Samples;Min_cycle;Max_cycle;Signal;HPM_P1;HPM_P2
2021/03/23 00:00:34;;;;;;;5.65;3.25;;;17.80;49.10;;;;;;5004807;28;20062;-61
2021/03/23 00:03:05;;;;;;;5.47;3.13;;;17.80;49.10;;;;;;4987895;28;20026;-62
2021/03/23 00:05:31;;;;;;;5.57;2.70;;;17.80;49.00;;;;;;5005427;28;20567;-61
2021/03/23 00:07:56;;;;;;;4.97;2.70;;;17.90;49.10;;;;;;5003621;28;20137;-61
2021/03/23 00:10:24;;;;;;;4.75;2.83;;;17.80;49.00;;;;;;5004818;28;20125;-58
2021/03/23 00:12:49;;;;;;;4.60;2.58;;;17.80;49.20;;;;;;5005239;28;20064;-59
2021/03/23 00:15:15;;;;;;;3.97;2.40;;;17.80;49.10;;;;;;5005805;28;20038;-60
2021/03/23 00:17:41;;;;;;;6.10;2.97;;;17.80;49.20;;;;;;5005377;28;20543;-62
2021/03/23 00:20:08;;;;;;;4.03;2.50;;;17.70;49.20;;;;;;5003437;28;20030;-66
2021/03/23 00:22:34;;;;;;;4.32;2.75;;;17.70;49.20;;;;;;5004143;28;20042;-61
2021/03/23 00:25:00;;;;;;;4.93;2.85;;;17.70;49.20;;;;;;5003776;28;20277;-60
2021/03/23 00:27:26;;;;;;;5.03;2.72;;;17.70;49.20;;;;;;5002131;28;22233;-59
2021/03/23 00:29:51;;;;;;;4.07;2.40;;;17.70;49.10;;;;;;5005023;28;20046;-61
2021/03/23 00:32:16;;;;;;;3.42;2.25;;;17.70;49.20;;;;;;5004638;28;20034;-61
2021/03/23 00:34:42;;;;;;;3.75;2.45;;;17.70;49.20;;;;;;5004494;28;20241;-60
2021/03/23 00:37:07;;;;;;;4.35;2.45;;;17.70;49.20;;;;;;5004406;28;20030;-62
2021/03/23 00:39:33;;;;;;;3.58;2.63;;;17.70;49.20;;;;;;5005196;28;20042;-62
2021/03/23 00:41:59;;;;;;;3.90;2.42;;;17.70;49.20;;;;;;5003867;28;20087;-59
2021/03/23 00:44:24;;;;;;;4.80;2.63;;;17.70;49.10;;;;;;5002867;28;20049;-59
2021/03/23 00:46:50;;;;;;;5.10;2.60;;;17.70;49.10;;;;;;5004329;28;20042;-61
2021/03/23 00:49:15;;;;;;;4.50;2.47;;;17.70;49.00;;;;;;5004655;28;20113;-60
2021/03/23 00:51:41;;;;;;;6.47;2.72;;;17.80;49.10;;;;;;5005249;28;20033;-61
2021/03/23 00:54:06;;;;;;;4.25;2.50;;;17.70;49.00;;;;;;5004814;28;20038;-61
2021/03/23 00:56:32;;;;;;;3.35;2.28;;;17.80;49.00;;;;;;5002145;28;20041;-60
2021/03/23 00:58:57;;;;;;;4.35;2.40;;;17.80;49.00;;;;;;5003146;28;20057;-60
2021/03/23 01:01:23;;;;;;;3.42;2.25;;;17.70;48.90;;;;;;5005014;28;20125;-62
2021/03/23 01:03:48;;;;;;;4.00;2.33;;;17.80;49.00;;;;;;5003103;28;20076;-62
2021/03/23 01:06:14;;;;;;;3.60;2.05;;;17.80;48.90;;;;;;5004103;28;20073;-61
2021/03/23 01:08:39;;;;;;;2.70;1.92;;;17.80;49.60;;;;;;5004136;28;20041;-59
2021/03/23 01:11:05;;;;;;;5.32;2.58;;;17.80;48.80;;;;;;5004869;28;20131;-59
2021/03/23 01:13:30;;;;;;;4.75;2.20;;;17.80;48.80;;;;;;5003043;28;20511;-61
2021/03/23 01:15:56;;;;;;;4.10;2.22;;;17.80;48.70;;;;;;5003975;28;20053;-62
2021/03/23 01:18:21;;;;;;;2.92;2.05;;;17.80;48.70;;;;;;5003911;28;20065;-61
2021/03/23 01:20:47;;;;;;;3.58;1.90;;;17.80;48.70;;;;;;5002756;28;20121;-60
2021/03/23 01:23:12;;;;;;;2.35;1.75;;;17.80;48.70;;;;;;5003346;28;20120;-61
2021/03/23 01:25:38;;;;;;;4.93;2.33;;;17.80;48.70;;;;;;5002718;28;20041;-62
2021/03/23 01:28:04;;;;;;;3.60;2.30;;;17.80;48.70;;;;;;5004222;28;20416;-61
2021/03/23 01:30:30;;;;;;;3.53;2.38;;;17.80;48.70;;;;;;5002461;28;20029;-61
2021/03/23 01:32:55;;;;;;;2.88;1.85;;;17.80;48.70;;;;;;5004133;28;20030;-60
2021/03/23 01:35:22;;;;;;;2.78;1.75;;;17.80;48.70;;;;;;4986349;28;20065;-60
2021/03/23 01:37:47;;;;;;;3.83;2.08;;;17.80;48.70;;;;;;5003783;28;20084;-60
2021/03/23 01:40:14;;;;;;;3.95;2.22;;;17.80;48.70;;;;;;5004079;28;20054;-60
2021/03/23 01:42:47;;;;;;;4.90;2.10;;;17.80;48.70;;;;;;4983520;28;20042;-60
2021/03/23 01:45:13;;;;;;;2.63;2.20;;;17.80;48.70;;;;;;5003755;28;20038;-60
2021/03/23 01:47:39;;;;;;;5.28;2.13;;;17.70;48.70;;;;;;5003811;28;20041;-59
2021/03/23 01:50:05;;;;;;;3.05;2.28;;;17.70;48.70;;;;;;5002951;28;20080;-60
2021/03/23 01:52:30;;;;;;;3.20;1.83;;;17.70;48.80;;;;;;4985313;28;20507;-60
2021/03/23 01:54:59;;;;;;;3.15;2.20;;;17.70;48.80;;;;;;5001913;28;20036;-60
2021/03/23 01:57:25;;;;;;;3.58;2.25;;;17.70;48.80;;;;;;5001822;28;20519;-60
2021/03/23 01:59:52;;;;;;;4.28;2.10;;;17.70;48.70;;;;;;5001739;28;20045;-60
2021/03/23 02:02:17;;;;;;;4.13;2.47;;;17.70;48.60;;;;;;4985168;28;20614;-60
2021/03/23 02:04:43;;;;;;;4.60;1.67;;;17.70;48.70;;;;;;5001777;28;20034;-61
2021/03/23 02:07:08;;;;;;;3.08;1.90;;;17.70;48.70;;;;;;5001707;28;20041;-61
2021/03/23 02:09:35;;;;;;;6.05;2.15;;;17.70;48.80;;;;;;5002447;28;20038;-61
2021/03/23 02:12:02;;;;;;;4.80;2.22;;;17.70;48.70;;;;;;5002230;28;20100;-60
2021/03/23 02:14:29;;;;;;;3.67;2.28;;;17.70;48.70;;;;;;5000894;28;20073;-60
2021/03/23 02:16:54;;;;;;;3.47;1.92;;;17.70;48.70;;;;;;4984860;28;20058;-60
2021/03/23 02:19:23;;;;;;;4.03;1.80;;;17.70;48.60;;;;;;5002852;28;20717;-61
2021/03/23 02:21:48;;;;;;;3.47;1.98;;;17.70;48.60;;;;;;5001438;28;20037;-62
2021/03/23 02:24:14;;;;;;;2.97;1.77;;;17.70;48.50;;;;;;5001239;28;20036;-60
2021/03/23 02:26:40;;;;;;;4.72;2.10;;;17.70;48.50;;;;;;4985061;28;20042;-59
2021/03/23 02:29:08;;;;;;;7.07;2.10;;;17.70;48.40;;;;;;4985817;28;20062;-60
2021/03/23 02:31:35;;;;;;;2.47;1.95;;;17.70;48.40;;;;;;5003227;28;20087;-60
2021/03/23 02:34:02;;;;;;;3.85;2.13;;;17.80;48.50;;;;;;4985075;28;20126;-61
2021/03/23 02:36:28;;;;;;;5.53;2.30;;;17.70;48.40;;;;;;4983223;28;20198;-60
2021/03/23 02:38:54;;;;;;;2.20;2.00;;;17.70;48.40;;;;;;5000159;28;20049;-61
2021/03/23 02:41:19;;;;;;;3.97;2.17;;;17.70;48.40;;;;;;5002301;28;20084;-61
2021/03/23 02:43:45;;;;;;;5.15;2.25;;;17.80;48.40;;;;;;4968407;28;20042;-59
2021/03/23 02:46:11;;;;;;;3.88;2.33;;;17.70;48.40;;;;;;5000308;28;20092;-61
2021/03/23 02:48:36;;;;;;;2.90;2.17;;;17.70;48.40;;;;;;5001877;28;20107;-60
2021/03/23 02:51:02;;;;;;;3.35;2.17;;;17.70;48.30;;;;;;5002040;28;20568;-61
2021/03/23 02:53:27;;;;;;;3.65;2.10;;;17.80;48.40;;;;;;5002580;28;20037;-61
2021/03/23 02:55:53;;;;;;;4.40;1.95;;;17.70;48.40;;;;;;4983551;28;20058;-60
2021/03/23 02:58:19;;;;;;;2.78;2.17;;;17.70;48.40;;;;;;5002493;28;20053;-58
2021/03/23 03:00:44;;;;;;;4.90;2.30;;;17.70;48.40;;;;;;5001982;28;20043;-60
2021/03/23 03:03:10;;;;;;;3.05;2.00;;;17.70;48.50;;;;;;5001317;28;20037;-61
2021/03/23 03:05:36;;;;;;;3.53;2.00;;;17.70;48.50;;;;;;5000911;28;20045;-62
2021/03/23 03:08:01;;;;;;;2.60;1.95;;;17.60;48.60;;;;;;5000687;28;20038;-61
2021/03/23 03:10:27;;;;;;;5.53;2.33;;;17.70;48.60;;;;;;5000841;28;20037;-61
2021/03/23 03:12:53;;;;;;;4.53;2.25;;;17.60;48.60;;;;;;5002624;28;20217;-62
2021/03/23 03:15:19;;;;;;;2.70;1.58;;;17.60;48.70;;;;;;5000796;28;20034;-62
2021/03/23 03:17:44;;;;;;;2.08;1.60;;;17.60;48.70;;;;;;5001823;28;20038;-62
2021/03/23 03:20:10;;;;;;;4.28;1.63;;;17.60;48.80;;;;;;5000913;28;20038;-60
2021/03/23 03:22:36;;;;;;;3.08;1.90;;;17.60;48.80;;;;;;5001596;28;20035;-60
2021/03/23 03:25:02;;;;;;;3.03;2.20;;;17.60;48.70;;;;;;5001089;28;20050;-58
2021/03/23 03:27:28;;;;;;;2.78;2.08;;;17.60;48.70;;;;;;4984453;28;20113;-59
2021/03/23 03:29:53;;;;;;;3.97;2.08;;;17.60;48.80;;;;;;5002274;28;20129;-60
2021/03/23 03:32:19;;;;;;;2.65;1.60;;;17.60;48.70;;;;;;5003067;28;20214;-62
2021/03/23 03:34:44;;;;;;;3.03;1.80;;;17.60;48.80;;;;;;5001795;28;20034;-60
2021/03/23 03:37:10;;;;;;;2.78;1.80;;;17.60;48.80;;;;;;5002213;28;20030;-59
2021/03/23 03:39:35;;;;;;;2.72;2.03;;;17.60;48.80;;;;;;5001059;28;20034;-60
2021/03/23 03:42:01;;;;;;;5.47;2.00;;;17.60;48.80;;;;;;5000802;28;20041;-62
2021/03/23 03:44:26;;;;;;;2.13;1.77;;;17.60;48.70;;;;;;5002005;28;20088;-60
2021/03/23 03:46:52;;;;;;;2.90;1.83;;;17.60;48.70;;;;;;5004132;28;20040;-60
2021/03/23 03:49:17;;;;;;;3.17;1.75;;;17.60;48.70;;;;;;5004121;28;20571;-60
2021/03/23 03:51:43;;;;;;;5.43;1.77;;;17.60;48.60;;;;;;5004348;28;20660;-61
2021/03/23 03:54:08;;;;;;;3.13;1.75;;;17.60;48.60;;;;;;5005911;28;20395;-63
2021/03/23 03:56:34;;;;;;;2.83;2.08;;;17.70;48.60;;;;;;5020109;22;20046;-62
2021/03/23 03:58:59;;;;;;;2.80;2.00;;;17.60;48.50;;;;;;5018423;28;20040;-62
2021/03/23 04:01:25;;;;;;;2.95;2.00;;;17.60;48.50;;;;;;5018946;28;20022;-62
2021/03/23 04:03:51;;;;;;;3.25;1.90;;;17.60;48.40;;;;;;5017050;28;20028;-62
2021/03/23 04:06:16;;;;;;;2.72;1.67;;;17.70;48.40;;;;;;5017009;28;20042;-61
2021/03/23 04:08:42;;;;;;;4.90;2.20;;;17.70;48.30;;;;;;5020132;28;20488;-62
2021/03/23 04:11:09;;;;;;;3.33;2.22;;;17.70;48.30;;;;;;5016618;28;20049;-61
2021/03/23 04:13:34;;;;;;;3.55;1.65;;;17.70;48.30;;;;;;5022238;28;20064;-60
2021/03/23 04:16:00;;;;;;;2.58;1.67;;;17.70;48.30;;;;;;5014914;28;20045;-62
2021/03/23 04:18:26;;;;;;;3.13;2.10;;;17.70;48.30;;;;;;5018003;28;20053;-62
2021/03/23 04:20:53;;;;;;;2.70;1.90;;;17.70;48.30;;;;;;5015619;28;20026;-62
2021/03/23 04:23:33;;;;;;;3.22;1.92;;;17.70;48.30;;;;;;5023028;28;20112;-61
2021/03/23 04:25:58;;;;;;;2.85;2.15;;;17.70;48.30;;;;;;5008200;28;20045;-60
2021/03/23 04:28:24;;;;;;;2.15;1.83;;;17.70;48.20;;;;;;5016985;28;20511;-62
2021/03/23 04:30:49;;;;;;;2.20;1.58;;;17.70;48.30;;;;;;5023999;28;20049;-60
2021/03/23 04:33:15;;;;;;;2.72;1.60;;;17.70;48.30;;;;;;5016075;28;20029;-63
2021/03/23 04:35:46;;;;;;;2.83;1.90;;;17.70;48.30;;;;;;5014023;28;20676;-62
2021/03/23 04:38:14;;;;;;;3.00;1.77;;;17.70;48.30;;;;;;5016596;28;20051;-62
2021/03/23 04:40:40;;;;;;;2.33;1.50;;;17.70;48.40;;;;;;5016460;28;20105;-62
2021/03/23 04:43:06;;;;;;;1.50;1.13;;;17.70;48.40;;;;;;5014904;28;20109;-62
2021/03/23 04:45:31;;;;;;;2.00;1.40;;;17.70;48.40;;;;;;5016631;28;20037;-61
2021/03/23 04:47:57;;;;;;;2.83;1.58;;;17.70;48.40;;;;;;5018702;28;20054;-63
2021/03/23 04:50:22;;;;;;;2.30;1.88;;;17.70;48.40;;;;;;5015871;28;20060;-63
2021/03/23 04:52:48;;;;;;;2.22;1.70;;;17.60;48.40;;;;;;5015887;28;20112;-62
2021/03/23 04:55:14;;;;;;;1.77;1.42;;;17.70;48.40;;;;;;5022519;28;20025;-63
2021/03/23 04:57:39;;;;;;;2.33;1.27;;;17.70;48.40;;;;;;5015180;28;20038;-62
2021/03/23 05:00:06;;;;;;;4.03;1.48;;;17.60;48.40;;;;;;5015974;28;20060;-60
2021/03/23 05:02:31;;;;;;;2.55;1.73;;;17.70;48.40;;;;;;5014813;28;20551;-61
2021/03/23 05:04:57;;;;;;;4.90;1.75;;;17.70;48.40;;;;;;5016990;28;20032;-62
2021/03/23 05:07:23;;;;;;;3.05;1.55;;;17.70;48.40;;;;;;5019064;28;20030;-62
2021/03/23 05:09:48;;;;;;;3.85;1.88;;;17.70;48.40;;;;;;5018597;28;20113;-63
2021/03/23 05:12:14;;;;;;;1.92;1.25;;;17.70;48.40;;;;;;5016052;28;20018;-63
2021/03/23 05:14:39;;;;;;;2.67;1.33;;;17.70;48.40;;;;;;5015575;28;20050;-63
2021/03/23 05:17:05;;;;;;;2.28;1.40;;;17.70;48.40;;;;;;5018336;28;20415;-63
2021/03/23 05:19:31;;;;;;;1.83;1.30;;;17.60;48.40;;;;;;5018477;28;20017;-62
2021/03/23 05:21:56;;;;;;;2.53;1.63;;;17.70;48.40;;;;;;5017096;28;20030;-62
2021/03/23 05:24:22;;;;;;;2.08;1.40;;;17.70;48.40;;;;;;5008099;28;20041;-62
2021/03/23 05:26:47;;;;;;;2.55;1.35;;;17.70;48.40;;;;;;4997474;28;20038;-62
2021/03/23 05:29:13;;;;;;;3.08;1.70;;;17.70;48.40;;;;;;4999323;28;20556;-63
2021/03/23 05:31:38;;;;;;;3.15;1.70;;;17.70;48.40;;;;;;5009980;28;20030;-61
2021/03/23 05:34:04;;;;;;;2.28;1.58;;;17.70;48.40;;;;;;5000489;28;20101;-62
2021/03/23 05:36:29;;;;;;;1.80;1.42;;;17.70;48.40;;;;;;4998327;28;20092;-63
2021/03/23 05:38:55;;;;;;;3.38;1.70;;;17.60;48.40;;;;;;5001494;28;20036;-61
2021/03/23 05:41:49;;;;;;;3.92;1.70;;;17.60;48.50;;;;;;5007694;28;20673;-63
2021/03/23 05:44:39;;;;;;;3.08;1.55;;;17.60;48.60;;;;;;4998436;28;20037;-63
2021/03/23 05:47:09;;;;;;;4.30;1.75;;;17.70;48.80;;;;;;5000598;28;20041;-61
2021/03/23 05:49:47;;;;;;;3.42;1.92;;;17.70;49.10;;;;;;4996308;28;20106;-63
2021/03/23 05:52:15;;;;;;;5.55;1.60;;;17.60;49.60;;;;;;5010154;28;20619;-62
2021/03/23 05:55:15;;;;;;;4.00;1.60;;;17.60;49.90;;;;;;4996641;28;20117;-63
2021/03/23 05:57:45;;;;;;;2.55;1.50;;;17.50;50.30;;;;;;4996632;28;20133;-61
2021/03/23 06:00:27;;;;;;;3.92;1.67;;;17.40;50.90;;;;;;4984901;28;20444;-62
2021/03/23 06:03:26;;;;;;;2.67;1.95;;;17.40;51.20;;;;;;4990748;28;20026;-61
2021/03/23 06:06:20;;;;;;;3.05;2.20;;;17.30;51.40;;;;;;4998089;28;20119;-63
2021/03/23 06:08:46;;;;;;;6.28;2.58;;;17.30;51.60;;;;;;5002735;28;20033;-61
2021/03/23 06:11:41;;;;;;;4.75;2.78;;;17.30;51.60;;;;;;4980610;28;21742;-63
2021/03/23 06:14:22;;;;;;;4.85;2.50;;;17.30;51.60;;;;;;4996639;28;20759;-61
2021/03/23 06:17:12;;;;;;;5.32;2.58;;;17.30;51.40;;;;;;5003500;28;20051;-63
2021/03/23 06:20:10;;;;;;;6.50;2.30;;;17.40;51.40;;;;;;5005012;28;20392;-61
2021/03/23 06:22:50;;;;;;;4.93;2.00;;;17.40;51.10;;;;;;4988080;28;20049;-64
2021/03/23 06:25:26;;;;;;;5.65;2.25;;;17.40;51.00;;;;;;4976221;28;20593;-63
2021/03/23 06:27:57;;;;;;;4.30;1.83;;;17.40;50.80;;;;;;4983230;28;20038;-60
2021/03/23 06:30:28;;;;;;;6.10;2.22;;;17.40;50.70;;;;;;4976019;28;20034;-58
2021/03/23 06:32:55;;;;;;;3.80;2.47;;;17.40;50.60;;;;;;4984955;28;20567;-61
2021/03/23 06:35:29;;;;;;;6.88;3.55;;;17.40;50.50;;;;;;4984323;28;20054;-60
2021/03/23 06:37:54;;;;;;;7.55;4.18;;;17.40;50.70;;;;;;4984126;28;20031;-62
2021/03/23 06:40:22;;;;;;;8.48;3.50;;;17.40;50.80;;;;;;4984714;28;20026;-60
2021/03/23 06:42:50;;;;;;;9.70;3.47;;;17.40;50.70;;;;;;4984943;28;20160;-61
2021/03/23 06:45:35;;;;;;;7.32;3.78;;;17.40;50.50;;;;;;4999569;28;20057;-60
2021/03/23 06:48:22;;;;;;;6.95;4.45;;;17.50;50.40;;;;;;4984973;28;20109;-62
2021/03/23 06:50:51;;;;;;;8.50;4.40;;;17.50;50.50;;;;;;5008260;28;20041;-62
2021/03/23 06:53:19;;;;;;;13.20;5.97;;;17.50;50.40;;;;;;4995923;28;20038;-61
2021/03/23 06:55:45;;;;;;;12.63;6.75;;;17.50;50.90;;;;;;4995595;28;20038;-61
2021/03/23 06:58:21;;;;;;;18.40;7.75;;;17.50;51.20;;;;;;4997575;28;20038;-61
2021/03/23 07:00:47;;;;;;;16.83;6.55;;;17.50;51.20;;;;;;5001635;28;20030;-62
2021/03/23 07:03:22;;;;;;;14.70;9.15;;;17.50;51.50;;;;;;4998643;28;20041;-62
2021/03/23 07:05:47;;;;;;;17.75;8.43;;;17.50;52.60;;;;;;5002324;28;20061;-61
2021/03/23 07:08:13;;;;;;;16.77;9.52;;;17.50;52.60;;;;;;4997782;28;20060;-64
2021/03/23 07:10:41;;;;;;;19.27;9.13;;;17.50;52.30;;;;;;5000871;28;20049;-62
2021/03/23 07:13:09;;;;;;;15.63;8.55;;;17.50;53.60;;;;;;5006190;28;20029;-63
2021/03/23 07:15:35;;;;;;;18.45;9.02;;;17.40;53.90;;;;;;4986140;28;20029;-63
2021/03/23 07:18:19;;;;;;;14.18;7.32;;;17.40;54.60;;;;;;4997273;28;20038;-63
2021/03/23 07:20:48;;;;;;;21.48;8.63;;;17.30;54.90;;;;;;4987226;28;20037;-63
2021/03/23 07:23:32;;;;;;;14.00;7.40;;;17.30;55.20;;;;;;5000515;28;20117;-60
2021/03/23 07:26:32;;;;;;;14.30;6.85;;;17.30;55.20;;;;;;4998375;28;20558;-62
2021/03/23 07:29:10;;;;;;;14.32;6.40;;;17.30;55.10;;;;;;4997583;28;20031;-61
2021/03/23 07:32:06;;;;;;;13.98;6.70;;;17.30;55.00;;;;;;5011717;28;20748;-61
2021/03/23 07:34:53;;;;;;;11.52;6.35;;;17.30;54.90;;;;;;5008378;28;20034;-61
2021/03/23 07:37:23;;;;;;;12.65;6.25;;;17.30;54.80;;;;;;4982655;28;20041;-64
2021/03/23 07:39:58;;;;;;;10.95;6.38;;;17.40;54.80;;;;;;5000948;28;20444;-62
2021/03/23 07:42:28;;;;;;;10.98;5.65;;;17.40;54.70;;;;;;5004007;28;20022;-64
2021/03/23 07:45:29;;;;;;;11.57;6.28;;;17.40;54.70;;;;;;5002986;28;20113;-61
2021/03/23 07:48:15;;;;;;;7.78;5.45;;;17.40;54.60;;;;;;4962511;28;20046;-61
2021/03/23 07:50:44;;;;;;;9.68;5.80;;;17.50;54.60;;;;;;4985281;28;20026;-62
2021/03/23 07:53:26;;;;;;;9.65;5.25;;;17.50;54.60;;;;;;4996720;28;20835;-63
2021/03/23 07:55:52;;;;;;;10.65;5.65;;;17.50;54.50;;;;;;4994474;28;20077;-63
2021/03/23 07:58:38;;;;;;;14.65;5.10;;;17.50;54.50;;;;;;4993831;28;20493;-61
2021/03/23 08:01:11;;;;;;;7.47;4.97;;;17.50;54.40;;;;;;5000876;28;20037;-62
2021/03/23 08:03:59;;;;;;;9.40;4.95;;;17.50;54.30;;;;;;4994861;28;20042;-63
2021/03/23 08:06:45;;;;;;;11.13;5.57;;;17.50;54.10;;;;;;4997659;28;20025;-63
2021/03/23 08:09:29;;;;;;;9.82;5.35;;;17.60;54.00;;;;;;5000253;28;20095;-60
2021/03/23 08:12:04;;;;;;;11.23;4.95;;;17.60;53.90;;;;;;5000516;28;20038;-62
2021/03/23 08:14:35;;;;;;;12.15;5.72;;;17.60;53.80;;;;;;4996317;28;20089;-63
2021/03/23 08:17:12;;;;;;;11.35;5.20;;;17.60;53.90;;;;;;4999619;28;20477;-62
2021/03/23 08:20:02;;;;;;;12.95;5.78;;;17.60;53.90;;;;;;4987779;28;20104;-63
2021/03/23 08:22:58;;;;;;;13.00;5.25;;;17.60;54.00;;;;;;5009263;28;20037;-61
2021/03/23 08:25:24;;;;;;;11.60;5.20;;;17.60;54.00;;;;;;4989188;28;20030;-64
2021/03/23 08:28:10;;;;;;;10.20;5.30;;;17.70;54.10;;;;;;5000548;28;20035;-63
2021/03/23 08:30:45;;;;;;;9.77;4.68;;;17.70;54.20;;;;;;5000572;28;20034;-63
2021/03/23 08:33:37;;;;;;;10.25;4.32;;;17.70;54.30;;;;;;4999719;28;20041;-65
2021/03/23 08:36:17;;;;;;;11.38;5.40;;;17.70;54.20;;;;;;5001418;28;20056;-63
2021/03/23 08:39:06;;;;;;;7.93;4.43;;;17.70;54.20;;;;;;5000424;28;20070;-63
2021/03/23 08:41:47;;;;;;;11.88;4.85;;;17.70;54.00;;;;;;4995845;28;20109;-64
2021/03/23 08:44:37;;;;;;;8.23;4.97;;;17.70;54.00;;;;;;5004530;28;20034;-61
2021/03/23 08:47:34;;;;;;;8.50;4.15;;;17.70;54.10;;;;;;4990107;28;20122;-64
2021/03/23 08:50:22;;;;;;;10.32;4.88;;;17.70;54.20;;;;;;5005306;28;20038;-64
2021/03/23 08:52:49;;;;;;;10.13;4.40;;;17.70;54.20;;;;;;4989300;28;20042;-63
2021/03/23 08:55:24;;;;;;;7.93;4.70;;;17.70;54.00;;;;;;5000606;28;20037;-63
2021/03/23 08:57:55;;;;;;;9.82;4.57;;;17.70;53.90;;;;;;5000836;28;20569;-65
2021/03/23 09:00:36;;;;;;;8.15;4.72;;;17.70;53.70;;;;;;4993446;28;20182;-61
2021/03/23 09:04:00;;;;;;;8.45;4.63;;;17.80;53.50;;;;;;4984876;28;20058;-63
2021/03/23 09:06:26;;;;;;;6.90;4.50;;;17.80;53.20;;;;;;4934018;29;20061;-63
2021/03/23 09:08:55;;;;;;;9.40;4.03;;;17.80;52.90;;;;;;4914947;29;20122;-63
2021/03/23 09:11:38;;;;;;;7.72;4.10;;;17.80;52.80;;;;;;4962342;28;20025;-63
2021/03/23 09:14:04;;;;;;;7.22;4.18;;;17.90;52.80;;;;;;4998002;28;20022;-63
2021/03/23 09:16:51;;;;;;;5.38;3.75;;;17.80;52.60;;;;;;4998324;28;20099;-63
2021/03/23 09:19:33;;;;;;;6.22;4.15;;;17.90;52.40;;;;;;4986941;28;20567;-63
2021/03/23 09:21:58;;;;;;;6.22;3.75;;;17.90;52.30;;;;;;5012619;28;20037;-62
2021/03/23 09:24:28;;;;;;;7.55;4.03;;;17.90;52.30;;;;;;4999212;28;20030;-62
2021/03/23 09:26:55;;;;;;;8.40;4.72;;;17.90;52.20;;;;;;5003514;28;20053;-60
2021/03/23 09:29:37;;;;;;;7.20;3.90;;;17.90;52.00;;;;;;5002203;28;20075;-62
2021/03/23 09:32:12;;;;;;;9.45;4.80;;;17.90;52.00;;;;;;4999627;28;20104;-63
2021/03/23 09:35:09;;;;;;;6.30;3.78;;;17.90;51.90;;;;;;4996352;28;20109;-63
2021/03/23 09:37:45;;;;;;;6.20;3.58;;;17.90;51.90;;;;;;4998005;28;20432;-63
2021/03/23 09:40:17;;;;;;;5.90;4.00;;;17.90;51.70;;;;;;5003337;28;20057;-63
2021/03/23 09:42:51;;;;;;;5.38;3.92;;;17.90;51.60;;;;;;5000691;28;20064;-62
2021/03/23 09:45:33;;;;;;;5.95;4.00;;;17.90;51.50;;;;;;4993381;28;20122;-62
2021/03/23 09:48:01;;;;;;;5.03;3.42;;;17.90;51.40;;;;;;4995085;28;20717;-63
2021/03/23 09:50:37;;;;;;;8.40;3.75;;;17.90;51.30;;;;;;5002037;28;20121;-61
2021/03/23 09:53:13;;;;;;;6.40;3.40;;;17.90;51.20;;;;;;4998618;28;20488;-63
2021/03/23 09:55:40;;;;;;;6.25;3.58;;;18.00;51.20;;;;;;4998388;28;20040;-62
2021/03/23 09:58:11;;;;;;;7.10;3.53;;;18.00;51.00;;;;;;5018691;23;20057;-66
2021/03/23 10:00:36;;;;;;;6.15;3.55;;;18.00;51.00;;;;;;5018678;28;21358;-66
2021/03/23 10:03:16;;;;;;;4.90;3.20;;;18.00;50.80;;;;;;5021382;28;20562;-66
2021/03/23 10:05:41;;;;;;;5.60;3.58;;;18.10;50.80;;;;;;5020095;28;20041;-66
2021/03/23 10:08:13;;;;;;;6.45;3.15;;;18.10;50.80;;;;;;5003997;28;20075;-66
2021/03/23 10:10:38;;;;;;;4.80;3.42;;;18.10;50.70;;;;;;5021938;28;20037;-66
2021/03/23 10:13:24;;;;;;;5.25;3.10;;;18.10;50.60;;;;;;5020140;28;20038;-66
2021/03/23 10:15:50;;;;;;;3.90;2.92;;;18.10;50.70;;;;;;5021475;28;20089;-66
2021/03/23 10:18:22;;;;;;;3.72;3.10;;;18.10;50.50;;;;;;5020400;28;20033;-66
2021/03/23 10:20:59;;;;;;;5.13;2.80;;;18.10;50.50;;;;;;5021135;28;20119;-66
2021/03/23 10:23:25;;;;;;;5.82;3.78;;;18.10;50.50;;;;;;5020865;28;20591;-66
2021/03/23 10:25:51;;;;;;;3.67;3.13;;;18.10;50.40;;;;;;5022224;28;20053;-65
2021/03/23 10:28:30;;;;;;;6.07;3.75;;;18.10;50.40;;;;;;5020226;28;20041;-66
2021/03/23 10:31:16;;;;;;;4.05;2.70;;;18.10;50.50;;;;;;5020842;28;20034;-66
2021/03/23 10:33:42;;;;;;;5.35;3.30;;;18.10;50.50;;;;;;5011556;28;20897;-65
2021/03/23 10:36:09;;;;;;;5.32;2.72;;;18.00;50.50;;;;;;5020539;28;20121;-66
2021/03/23 10:38:40;;;;;;;5.22;3.00;;;18.00;50.40;;;;;;5020494;28;20641;-66
2021/03/23 10:41:18;;;;;;;3.70;2.75;;;18.00;50.40;;;;;;5021149;28;20709;-66
2021/03/23 10:43:44;;;;;;;4.18;2.65;;;18.00;50.40;;;;;;5021934;28;20040;-65
2021/03/23 10:46:29;;;;;;;3.25;2.47;;;18.00;50.40;;;;;;5021601;28;20125;-65
2021/03/23 10:49:11;;;;;;;3.13;2.77;;;18.00;50.40;;;;;;5021390;28;20057;-66
2021/03/23 10:51:39;;;;;;;3.70;2.67;;;18.00;50.30;;;;;;5020730;28;20681;-66
2021/03/23 10:54:32;;;;;;;3.67;2.45;;;18.10;50.30;;;;;;5020909;28;20039;-66
2021/03/23 10:57:19;;;;;;;3.60;2.60;;;18.10;50.30;;;;;;5012608;28;20451;-66
2021/03/23 10:59:44;;;;;;;2.53;2.33;;;18.10;50.20;;;;;;5021374;28;20038;-66
2021/03/23 11:02:13;;;;;;;4.22;2.55;;;18.10;50.20;;;;;;5022091;28;20518;-66
2021/03/23 11:04:38;;;;;;;2.72;1.92;;;18.10;50.20;;;;;;5000132;28;20034;-66
2021/03/23 11:07:18;;;;;;;3.25;2.65;;;18.10;50.10;;;;;;5010795;28;20095;-65
2021/03/23 11:09:43;;;;;;;4.05;2.22;;;18.00;50.10;;;;;;5017598;28;20034;-66
2021/03/23 11:12:09;;;;;;;3.70;2.83;;;18.10;50.00;;;;;;5010757;28;20387;-65
2021/03/23 11:14:34;;;;;;;2.40;2.03;;;18.10;50.00;;;;;;5013342;28;20033;-66
2021/03/23 11:17:00;;;;;;;3.42;2.03;;;18.10;50.00;;;;;;5013159;28;20627;-66
2021/03/23 11:19:32;;;;;;;3.10;1.90;;;18.10;50.00;;;;;;4993899;28;20037;-66
2021/03/23 11:22:04;;;;;;;4.22;2.40;;;18.00;50.00;;;;;;5011345;28;20124;-66
2021/03/23 11:24:29;;;;;;;2.92;2.25;;;18.10;50.00;;;;;;5017527;28;20056;-66
2021/03/23 11:26:56;;;;;;;4.47;2.15;;;18.10;50.00;;;;;;5012070;28;20396;-66
2021/03/23 11:29:22;;;;;;;4.15;2.45;;;18.00;49.90;;;;;;5006209;28;20041;-67
2021/03/23 11:31:47;;;;;;;3.08;2.38;;;18.10;49.90;;;;;;5002794;28;20559;-66
2021/03/23 11:34:13;;;;;;;2.92;2.10;;;18.10;49.90;;;;;;5011609;28;20030;-67
2021/03/23 11:36:39;;;;;;;3.35;2.10;;;18.00;49.90;;;;;;5007358;28;20072;-66
2021/03/23 11:39:05;;;;;;;3.78;2.60;;;18.10;50.10;;;;;;5008150;28;20083;-66
2021/03/23 11:41:38;;;;;;;3.55;2.17;;;18.00;50.00;;;;;;5017061;28;20568;-66
2021/03/23 11:44:05;;;;;;;2.90;1.70;;;18.00;50.00;;;;;;5015737;28;20124;-66
2021/03/23 11:46:40;;;;;;;3.90;2.10;;;18.00;50.10;;;;;;5015004;28;20034;-66
2021/03/23 11:49:09;;;;;;;2.55;2.05;;;18.10;50.20;;;;;;5001320;28;20033;-66
2021/03/23 11:51:36;;;;;;;4.00;2.38;;;18.00;50.30;;;;;;5003578;28;20042;-67
2021/03/23 11:54:02;;;;;;;4.18;2.20;;;18.00;50.40;;;;;;4984431;28;20046;-64
2021/03/23 11:56:28;;;;;;;4.50;2.08;;;18.00;50.70;;;;;;5005392;28;20030;-69
2021/03/23 11:58:53;;;;;;;4.45;2.65;;;18.00;51.00;;;;;;5004436;28;20045;-67
2021/03/23 12:01:21;;;;;;;5.13;2.28;;;18.00;51.60;;;;;;5006205;28;20034;-69
2021/03/23 12:03:47;;;;;;;4.28;2.40;;;18.00;51.80;;;;;;5009252;28;20044;-67
2021/03/23 12:06:13;;;;;;;4.85;2.42;;;17.90;52.00;;;;;;5015175;28;20037;-69
2021/03/23 12:08:53;;;;;;;3.72;1.90;;;17.90;52.10;;;;;;4997604;28;20475;-69
2021/03/23 12:11:30;;;;;;;3.47;2.60;;;17.90;52.10;;;;;;5016880;28;20056;-68
2021/03/23 12:14:13;;;;;;;4.50;2.25;;;17.90;52.60;;;;;;5017214;28;20068;-66
2021/03/23 12:16:51;;;;;;;3.25;2.30;;;17.90;53.20;;;;;;5024644;28;20034;-68
2021/03/23 12:19:16;;;;;;;3.42;2.53;;;17.90;54.30;;;;;;5015393;28;20117;-67
2021/03/23 12:21:42;;;;;;;3.17;2.30;;;17.90;54.10;;;;;;5023237;28;20452;-68
2021/03/23 12:24:08;;;;;;;3.13;2.03;;;17.90;53.70;;;;;;5024848;28;20032;-68
2021/03/23 12:26:34;;;;;;;3.17;2.33;;;17.90;53.80;;;;;;5023632;28;20113;-67
2021/03/23 12:28:59;;;;;;;2.47;2.17;;;17.90;53.90;;;;;;5024699;28;20487;-67
2021/03/23 12:31:26;;;;;;;4.32;2.00;;;17.90;54.50;;;;;;5024912;28;20116;-68
2021/03/23 12:33:52;;;;;;;4.38;2.63;;;18.00;54.10;;;;;;5023238;28;20034;-66
2021/03/23 12:36:18;;;;;;;4.32;2.20;;;18.00;54.40;;;;;;5024084;28;20044;-67
2021/03/23 12:38:45;;;;;;;4.43;1.92;;;17.90;54.40;;;;;;5022939;28;20037;-67
2021/03/23 12:41:15;;;;;;;3.30;2.17;;;17.90;54.50;;;;;;5022498;28;20476;-67
2021/03/23 12:43:41;;;;;;;2.97;1.98;;;17.90;54.30;;;;;;5023177;28;20045;-67
2021/03/23 12:46:07;;;;;;;3.83;2.15;;;17.90;54.00;;;;;;5024723;28;20167;-67
2021/03/23 12:48:34;;;;;;;4.55;1.90;;;18.00;54.00;;;;;;5024092;28;21069;-66
2021/03/23 12:51:00;;;;;;;3.78;1.65;;;18.00;53.90;;;;;;5024759;28;20752;-67
2021/03/23 12:53:25;;;;;;;4.65;2.00;;;18.00;53.80;;;;;;5022851;28;20028;-66
2021/03/23 12:55:52;;;;;;;4.40;1.90;;;18.00;53.70;;;;;;5023000;28;20026;-66
2021/03/23 12:58:21;;;;;;;3.75;1.70;;;18.00;53.60;;;;;;4999638;28;20049;-68
2021/03/23 13:00:47;;;;;;;2.60;1.67;;;18.00;53.50;;;;;;5023922;28;20516;-66
2021/03/23 13:03:14;;;;;;;2.70;1.70;;;18.00;53.40;;;;;;5024098;28;20030;-68